Time;durP1;ratioP1;P1;durP2;ratioP2;P2;SDS_P1;SDS_P2;PMS_P1;PMS_P2;Temp;Humidity;BMP_temperature;BMP_pressure;BME280_temperature;BME280_humidity;BME280_pressure;Samples;Min_cycle;Max_cycle;Signal;HPM_P1;HPM_P2
2022/10/22 00:01:31;;;;;;;3.72;3.50;;;8.80;99.90;;;;;;6098048;29;20272;-67
2022/10/22 00:04:37;;;;;;;4.40;4.03;;;8.80;99.90;;;;;;6096780;29;20308;-67
2022/10/22 00:07:42;;;;;;;4.22;4.03;;;8.80;99.90;;;;;;6111840;29;20295;-66
2022/10/22 00:10:47;;;;;;;3.80;3.60;;;8.90;99.90;;;;;;6120658;29;20307;-66
2022/10/22 00:13:52;;;;;;;3.92;3.53;;;8.80;99.90;;;;;;6144309;29;20299;-68
2022/10/22 00:16:59;;;;;;;4.25;3.95;;;8.80;99.90;;;;;;6144469;29;20275;-67
2022/10/22 00:20:08;;;;;;;3.63;3.40;;;8.80;99.90;;;;;;6143939;29;20303;-67
2022/10/22 00:23:15;;;;;;;4.60;3.45;;;8.80;99.90;;;;;;6143375;29;20274;-67
2022/10/22 00:26:19;;;;;;;4.05;3.33;;;8.80;99.90;;;;;;6144081;29;20275;-66
2022/10/22 00:29:24;;;;;;;4.95;3.67;;;8.90;99.90;;;;;;6143457;29;20631;-67
2022/10/22 00:32:29;;;;;;;3.45;3.25;;;8.90;99.90;;;;;;6144473;29;20547;-67
2022/10/22 00:35:35;;;;;;;3.88;3.55;;;8.90;99.90;;;;;;6143767;29;20299;-67
2022/10/22 00:38:40;;;;;;;4.25;3.22;;;8.80;99.90;;;;;;6143634;29;20311;-67
2022/10/22 00:41:46;;;;;;;3.97;2.97;;;8.70;99.90;;;;;;6143902;29;20271;-67
2022/10/22 00:45:16;;;;;;;3.40;3.20;;;8.80;99.90;;;;;;6143548;29;20454;-68
2022/10/22 00:48:24;;;;;;;3.70;3.10;;;8.90;99.90;;;;;;6143216;29;20315;-67
2022/10/22 00:51:33;;;;;;;3.30;3.17;;;8.90;99.90;;;;;;6143818;29;20271;-67
2022/10/22 00:54:38;;;;;;;3.50;3.30;;;8.80;99.90;;;;;;6142695;29;20295;-67
2022/10/22 00:57:44;;;;;;;3.20;3.10;;;8.80;99.90;;;;;;6143786;29;20276;-67
2022/10/22 01:00:48;;;;;;;3.45;3.17;;;8.80;99.90;;;;;;6143124;29;20325;-67
2022/10/22 01:03:53;;;;;;;3.28;3.13;;;8.80;99.90;;;;;;6142696;29;20595;-67
2022/10/22 01:07:00;;;;;;;3.13;3.03;;;8.80;99.90;;;;;;6143006;29;20299;-67
2022/10/22 01:10:10;;;;;;;3.88;3.30;;;8.80;99.90;;;;;;6142837;29;20512;-67
2022/10/22 01:13:31;;;;;;;3.28;3.17;;;8.80;99.90;;;;;;6121540;29;20268;-66
2022/10/22 01:16:43;;;;;;;3.45;3.22;;;8.80;99.90;;;;;;6119762;29;20268;-67
2022/10/22 01:20:03;;;;;;;3.78;3.47;;;8.70;99.90;;;;;;6118919;29;20337;-67
2022/10/22 01:23:24;;;;;;;3.50;3.30;;;8.80;99.90;;;;;;6119442;29;20276;-67
2022/10/22 01:26:38;;;;;;;3.25;3.15;;;8.70;99.90;;;;;;6118635;29;20279;-67
2022/10/22 01:29:49;;;;;;;3.53;2.85;;;8.70;99.90;;;;;;6118862;29;20299;-67
2022/10/22 01:32:58;;;;;;;3.38;3.20;;;8.70;99.90;;;;;;6119136;29;20275;-67
2022/10/22 01:36:04;;;;;;;3.40;3.30;;;8.70;99.90;;;;;;6118161;29;20483;-66
2022/10/22 01:39:11;;;;;;;3.10;3.00;;;8.80;99.90;;;;;;6118522;29;20300;-67
2022/10/22 01:42:16;;;;;;;3.47;3.33;;;8.70;99.90;;;;;;6118838;29;20583;-67
2022/10/22 01:45:22;;;;;;;3.40;3.30;;;8.80;99.90;;;;;;6101884;29;20299;-67
2022/10/22 01:48:39;;;;;;;4.65;3.38;;;8.80;99.90;;;;;;6118702;29;20272;-67
2022/10/22 01:51:53;;;;;;;3.05;2.95;;;8.70;99.90;;;;;;6118902;29;20295;-67
2022/10/22 01:55:07;;;;;;;3.30;3.15;;;8.70;99.90;;;;;;6118408;29;20295;-67
2022/10/22 01:58:24;;;;;;;3.20;3.10;;;8.70;99.90;;;;;;6117810;29;20281;-66
2022/10/22 02:01:40;;;;;;;3.08;3.00;;;8.70;99.90;;;;;;6118384;29;20291;-65
2022/10/22 02:04:49;;;;;;;5.47;2.78;;;8.60;99.90;;;;;;6117300;29;20288;-66
2022/10/22 02:07:58;;;;;;;3.05;2.85;;;8.70;99.90;;;;;;6118181;29;20603;-66
2022/10/22 02:11:03;;;;;;;3.55;3.30;;;8.60;99.90;;;;;;6120087;29;20299;-67
2022/10/22 02:14:09;;;;;;;3.30;3.10;;;8.60;99.90;;;;;;6141433;29;20299;-67
2022/10/22 02:17:18;;;;;;;3.22;3.13;;;8.60;99.90;;;;;;6141925;29;20449;-67
2022/10/22 02:20:28;;;;;;;3.40;3.20;;;8.60;99.90;;;;;;6141171;29;20307;-67
2022/10/22 02:23:33;;;;;;;3.53;3.30;;;8.60;99.90;;;;;;6141473;29;20307;-67
2022/10/22 02:26:43;;;;;;;3.05;2.95;;;8.60;99.90;;;;;;6141123;29;20276;-67
2022/10/22 02:29:53;;;;;;;3.47;3.38;;;8.70;99.90;;;;;;6141044;29;20307;-67
2022/10/22 02:33:03;;;;;;;3.38;2.90;;;8.60;99.90;;;;;;6141307;29;20275;-67
2022/10/22 02:36:09;;;;;;;3.50;2.92;;;8.60;99.90;;;;;;6141141;29;20303;-66
2022/10/22 02:39:15;;;;;;;3.38;3.17;;;8.60;99.90;;;;;;6141033;29;20511;-67
2022/10/22 02:42:25;;;;;;;3.15;2.90;;;8.60;99.90;;;;;;6141173;29;20578;-66
2022/10/22 02:45:30;;;;;;;3.45;2.92;;;8.60;99.90;;;;;;6140578;29;20303;-67
2022/10/22 02:48:36;;;;;;;6.13;2.97;;;8.70;99.90;;;;;;6140278;29;20295;-67
2022/10/22 02:51:41;;;;;;;2.67;2.58;;;8.70;99.90;;;;;;6141353;29;20466;-67
2022/10/22 02:54:46;;;;;;;2.90;2.80;;;8.60;99.90;;;;;;6140571;29;20298;-67
2022/10/22 02:57:51;;;;;;;3.15;2.80;;;8.70;99.90;;;;;;6141257;29;20272;-67
2022/10/22 03:00:55;;;;;;;2.97;2.88;;;8.60;99.90;;;;;;6140294;29;20539;-67
2022/10/22 03:04:02;;;;;;;3.03;2.58;;;8.60;99.90;;;;;;6120805;29;20311;-67
2022/10/22 03:07:08;;;;;;;2.80;2.70;;;8.70;99.90;;;;;;6127345;29;20287;-68
2022/10/22 03:10:12;;;;;;;2.80;2.70;;;8.80;99.90;;;;;;6136362;29;20276;-67
2022/10/22 03:13:17;;;;;;;2.63;2.60;;;8.80;99.90;;;;;;6095851;29;20296;-67
2022/10/22 03:16:22;;;;;;;2.75;2.63;;;8.80;99.90;;;;;;6093201;29;20277;-67
2022/10/22 03:19:28;;;;;;;2.80;2.60;;;8.80;99.90;;;;;;6102340;29;20455;-67
2022/10/22 03:22:34;;;;;;;2.80;2.55;;;8.80;99.90;;;;;;6116391;29;20299;-67
2022/10/22 03:25:41;;;;;;;2.80;2.65;;;8.90;99.90;;;;;;6117170;29;20267;-67
2022/10/22 03:28:47;;;;;;;3.92;2.60;;;8.90;99.90;;;;;;6116169;29;20299;-67
2022/10/22 03:31:52;;;;;;;3.13;2.92;;;8.90;99.90;;;;;;6116734;29;20280;-67
2022/10/22 03:34:58;;;;;;;4.93;2.70;;;8.90;99.90;;;;;;6115543;29;20279;-68
2022/10/22 03:38:10;;;;;;;3.17;2.70;;;8.90;99.90;;;;;;6135056;29;20299;-67
2022/10/22 03:41:16;;;;;;;3.05;2.95;;;9.00;99.90;;;;;;6140601;29;20314;-67
2022/10/22 03:44:23;;;;;;;2.97;2.80;;;8.90;99.90;;;;;;6139792;29;20295;-67
2022/10/22 03:47:27;;;;;;;2.80;2.70;;;9.00;99.90;;;;;;6139932;29;20294;-67
2022/10/22 03:50:33;;;;;;;4.60;2.72;;;8.90;99.90;;;;;;6139909;29;20267;-67
2022/10/22 03:53:38;;;;;;;3.13;2.63;;;9.00;99.90;;;;;;6139952;29;20298;-67
2022/10/22 03:56:43;;;;;;;3.08;2.78;;;8.90;99.90;;;;;;6139853;29;20275;-67
2022/10/22 03:59:49;;;;;;;2.63;2.58;;;8.90;99.90;;;;;;6139874;29;20311;-67
2022/10/22 04:02:54;;;;;;;3.05;2.72;;;8.90;99.90;;;;;;6139706;29;20298;-67
2022/10/22 04:06:08;;;;;;;5.18;2.90;;;9.00;99.90;;;;;;6139873;29;20279;-67
2022/10/22 04:09:13;;;;;;;3.55;2.65;;;9.00;99.90;;;;;;6139679;29;20295;-67
2022/10/22 04:12:18;;;;;;;2.92;2.72;;;9.00;99.90;;;;;;6116921;29;20299;-67
2022/10/22 04:15:25;;;;;;;2.47;2.28;;;9.00;99.90;;;;;;6116206;29;20460;-66
2022/10/22 04:18:30;;;;;;;3.20;2.83;;;9.00;99.90;;;;;;6115713;29;20573;-67
2022/10/22 04:21:36;;;;;;;2.78;2.63;;;9.10;99.90;;;;;;6116180;29;20291;-67
2022/10/22 04:24:41;;;;;;;2.90;2.70;;;9.10;99.90;;;;;;6116034;29;20304;-67
2022/10/22 04:27:46;;;;;;;6.63;2.80;;;9.10;99.90;;;;;;6115641;29;20307;-67
2022/10/22 04:30:50;;;;;;;2.83;2.72;;;9.00;99.90;;;;;;6120569;29;20305;-67
2022/10/22 04:33:57;;;;;;;2.63;2.53;;;9.10;99.90;;;;;;6120079;29;20303;-67
2022/10/22 04:37:03;;;;;;;2.88;2.70;;;9.10;99.90;;;;;;6119864;29;20279;-66
2022/10/22 04:40:10;;;;;;;2.85;2.75;;;9.10;99.90;;;;;;6120479;29;20571;-66
2022/10/22 04:43:16;;;;;;;3.03;2.85;;;9.10;99.90;;;;;;6119391;29;20619;-66
2022/10/22 04:46:22;;;;;;;2.42;2.40;;;9.10;99.90;;;;;;6120560;29;20350;-66
2022/10/22 04:49:27;;;;;;;2.80;2.60;;;9.10;99.90;;;;;;6119709;29;20300;-66
2022/10/22 04:52:33;;;;;;;4.70;2.70;;;9.10;99.90;;;;;;6119623;29;20308;-67
2022/10/22 04:55:38;;;;;;;2.45;2.40;;;9.10;99.90;;;;;;6120278;29;20275;-66
2022/10/22 04:58:43;;;;;;;2.88;2.60;;;9.20;99.90;;;;;;6119295;29;20307;-67
2022/10/22 05:01:48;;;;;;;2.70;2.60;;;9.20;99.90;;;;;;6120105;29;20300;-67
2022/10/22 05:04:52;;;;;;;2.78;2.60;;;9.20;99.90;;;;;;6119688;29;20312;-67
2022/10/22 05:07:58;;;;;;;2.90;2.80;;;9.20;99.90;;;;;;6119431;29;20295;-67
2022/10/22 05:11:12;;;;;;;2.83;2.65;;;9.20;99.90;;;;;;6129610;29;20263;-67
2022/10/22 05:14:19;;;;;;;3.05;2.85;;;9.20;99.90;;;;;;6142951;29;20590;-66
2022/10/22 05:17:24;;;;;;;3.88;2.50;;;9.20;99.90;;;;;;6142600;29;20486;-66
2022/10/22 05:20:29;;;;;;;2.90;2.80;;;9.20;99.90;;;;;;6143080;29;20275;-67
2022/10/22 05:23:35;;;;;;;2.72;2.63;;;9.20;99.90;;;;;;6142793;29;20299;-67
2022/10/22 05:26:40;;;;;;;2.63;2.53;;;9.30;99.90;;;;;;6142917;29;20271;-67
2022/10/22 05:29:44;;;;;;;2.63;2.42;;;9.20;99.90;;;;;;6142310;29;20295;-67
2022/10/22 05:32:51;;;;;;;4.47;2.63;;;9.20;99.90;;;;;;6142569;29;20294;-67
2022/10/22 05:35:56;;;;;;;3.00;2.72;;;9.20;99.90;;;;;;6143188;29;20290;-68
2022/10/22 05:39:02;;;;;;;3.42;2.60;;;9.20;99.90;;;;;;6142485;29;20477;-67
2022/10/22 05:42:07;;;;;;;4.10;2.85;;;9.30;99.90;;;;;;6141273;29;20602;-67
2022/10/22 05:45:13;;;;;;;6.28;2.85;;;9.30;99.90;;;;;;6142802;29;20280;-66
2022/10/22 05:48:18;;;;;;;2.83;2.70;;;9.30;99.90;;;;;;6142067;29;20291;-66
2022/10/22 05:51:24;;;;;;;3.15;2.88;;;9.30;99.90;;;;;;6142382;29;20292;-66
2022/10/22 05:54:30;;;;;;;5.15;2.95;;;9.30;99.90;;;;;;6142190;29;20482;-66
2022/10/22 05:57:35;;;;;;;2.83;2.80;;;9.40;99.90;;;;;;6141235;29;20290;-67
2022/10/22 06:00:39;;;;;;;2.63;2.60;;;9.40;99.90;;;;;;6142543;29;20267;-67
2022/10/22 06:03:44;;;;;;;2.75;2.60;;;9.40;99.90;;;;;;6141619;29;20614;-67
2022/10/22 06:06:51;;;;;;;5.70;2.90;;;9.40;99.90;;;;;;6125245;29;20239;-67
2022/10/22 06:09:58;;;;;;;2.28;2.28;;;9.40;99.90;;;;;;6136999;29;20275;-67
2022/10/22 06:13:06;;;;;;;2.60;2.50;;;9.40;99.90;;;;;;6117757;29;20390;-67
2022/10/22 06:16:13;;;;;;;3.17;2.70;;;9.40;99.90;;;;;;6118467;29;20480;-67
2022/10/22 06:19:21;;;;;;;2.92;2.83;;;9.40;99.90;;;;;;6117887;29;20464;-67
2022/10/22 06:22:26;;;;;;;2.72;2.55;;;9.40;99.90;;;;;;6117285;29;20307;-67
2022/10/22 06:25:32;;;;;;;3.03;2.83;;;9.50;99.90;;;;;;6118146;29;20513;-68
2022/10/22 06:28:37;;;;;;;2.67;2.47;;;9.50;99.90;;;;;;6117670;29;20295;-68
2022/10/22 06:31:42;;;;;;;2.80;2.70;;;9.50;99.90;;;;;;6117813;29;20430;-67
2022/10/22 06:34:49;;;;;;;3.45;3.22;;;9.50;99.90;;;;;;6117248;29;20304;-67
2022/10/22 06:37:54;;;;;;;2.78;2.67;;;9.60;99.90;;;;;;6117288;29;20300;-67
2022/10/22 06:41:05;;;;;;;2.90;2.70;;;9.60;99.90;;;;;;6117995;29;20276;-67
2022/10/22 06:44:15;;;;;;;2.95;2.53;;;9.60;99.90;;;;;;6116963;29;20612;-67
2022/10/22 06:47:20;;;;;;;3.00;2.80;;;9.60;99.90;;;;;;6117137;29;20602;-67
2022/10/22 06:50:25;;;;;;;4.22;3.30;;;9.50;99.90;;;;;;6117315;29;20272;-67
2022/10/22 06:53:30;;;;;;;3.80;3.60;;;9.50;99.90;;;;;;6116864;29;20308;-67
2022/10/22 06:56:36;;;;;;;4.35;3.88;;;9.60;99.90;;;;;;6117456;29;20432;-67
2022/10/22 06:59:41;;;;;;;3.45;3.35;;;9.60;99.90;;;;;;6116952;29;20312;-66
2022/10/22 07:02:52;;;;;;;4.43;4.00;;;9.60;99.90;;;;;;6116618;29;20311;-66
2022/10/22 07:06:04;;;;;;;4.13;3.83;;;9.70;99.90;;;;;;6111297;29;20576;-66
2022/10/22 07:09:09;;;;;;;4.30;3.90;;;9.70;99.90;;;;;;6116676;29;20295;-66
2022/10/22 07:12:15;;;;;;;5.32;3.40;;;9.80;99.90;;;;;;6138441;29;20275;-66
2022/10/22 07:15:20;;;;;;;7.10;3.80;;;9.80;99.90;;;;;;6140588;29;20279;-67
2022/10/22 07:18:25;;;;;;;3.72;3.28;;;9.80;99.90;;;;;;6140183;29;20298;-66
2022/10/22 07:21:29;;;;;;;3.30;3.10;;;9.80;99.90;;;;;;6123515;29;20267;-68
2022/10/22 07:24:34;;;;;;;3.55;3.22;;;9.80;99.90;;;;;;6140054;29;20302;-67
2022/10/22 07:27:40;;;;;;;3.15;2.83;;;9.80;99.90;;;;;;6140182;29;20295;-67
2022/10/22 07:30:46;;;;;;;2.75;2.75;;;9.80;99.90;;;;;;6140741;29;20334;-67
2022/10/22 07:33:51;;;;;;;3.42;3.25;;;9.80;99.90;;;;;;6132779;29;20299;-67
2022/10/22 07:36:56;;;;;;;2.95;2.83;;;9.90;99.90;;;;;;6139773;29;20275;-68
2022/10/22 07:40:01;;;;;;;3.53;3.22;;;9.90;99.90;;;;;;6140565;29;20275;-68
2022/10/22 07:43:09;;;;;;;3.22;3.03;;;9.90;99.90;;;;;;6139671;29;20591;-68
2022/10/22 07:46:14;;;;;;;3.40;3.20;;;10.00;99.90;;;;;;6140140;29;20267;-67
2022/10/22 07:49:19;;;;;;;2.95;2.83;;;9.90;99.90;;;;;;6139660;29;20299;-66
2022/10/22 07:52:24;;;;;;;3.67;3.45;;;9.90;99.90;;;;;;6082368;29;20592;-67
2022/10/22 07:55:29;;;;;;;3.72;3.55;;;9.90;99.90;;;;;;6093374;29;20285;-67
2022/10/22 07:58:35;;;;;;;5.35;3.60;;;9.90;99.90;;;;;;6092410;29;20296;-67
2022/10/22 08:01:40;;;;;;;3.65;3.17;;;10.00;99.90;;;;;;6092871;29;20282;-68
2022/10/22 08:04:44;;;;;;;3.50;3.30;;;10.00;99.90;;;;;;6095330;29;20303;-67
2022/10/22 08:07:49;;;;;;;3.47;3.28;;;10.00;99.90;;;;;;6096669;29;20466;-67
2022/10/22 08:10:55;;;;;;;4.35;3.95;;;10.00;99.90;;;;;;6109231;29;20267;-67
2022/10/22 08:14:01;;;;;;;5.10;4.60;;;10.00;99.90;;;;;;6120845;29;20303;-67
2022/10/22 08:17:06;;;;;;;4.30;3.97;;;10.00;99.90;;;;;;6120542;29;20276;-67
2022/10/22 08:20:12;;;;;;;4.40;4.00;;;10.10;99.90;;;;;;6121079;29;20280;-67
2022/10/22 08:23:17;;;;;;;4.18;3.88;;;10.10;99.90;;;;;;6120280;29;20311;-67
2022/10/22 08:26:26;;;;;;;4.05;3.75;;;10.10;99.90;;;;;;6120265;29;20271;-67
2022/10/22 08:29:32;;;;;;;3.80;3.60;;;10.10;99.90;;;;;;6120057;29;20312;-67
2022/10/22 08:32:36;;;;;;;4.68;3.83;;;10.10;99.90;;;;;;6120034;29;20291;-66
2022/10/22 08:35:41;;;;;;;4.28;3.95;;;10.10;99.90;;;;;;6120144;29;20457;-68
2022/10/22 08:38:46;;;;;;;5.03;4.65;;;10.10;99.90;;;;;;6119636;29;20304;-67
2022/10/22 08:42:00;;;;;;;4.70;4.40;;;10.20;99.90;;;;;;6120234;29;20280;-66
2022/10/22 08:45:13;;;;;;;4.75;4.55;;;10.20;99.90;;;;;;6119258;29;20291;-67
2022/10/22 08:48:34;;;;;;;7.57;4.65;;;10.20;99.90;;;;;;6119556;29;20307;-67
2022/10/22 08:51:39;;;;;;;8.88;4.72;;;10.30;99.90;;;;;;6120170;29;20567;-68
2022/10/22 08:54:52;;;;;;;4.88;4.47;;;10.30;99.90;;;;;;6119859;29;20299;-67
2022/10/22 08:58:03;;;;;;;6.85;5.15;;;10.30;99.90;;;;;;6119859;29;20296;-67
2022/10/22 09:01:15;;;;;;;7.03;4.60;;;10.30;99.90;;;;;;6119954;29;20268;-67
2022/10/22 09:04:25;;;;;;;6.95;4.65;;;10.40;99.90;;;;;;6119396;29;20555;-66
2022/10/22 09:07:29;;;;;;;5.95;5.40;;;10.40;99.90;;;;;;6119219;29;20295;-66
2022/10/22 09:10:37;;;;;;;8.55;5.35;;;10.50;99.90;;;;;;6128583;29;20267;-67
2022/10/22 09:13:45;;;;;;;5.40;4.82;;;10.50;99.90;;;;;;6142794;29;20303;-67
2022/10/22 09:17:13;;;;;;;5.15;4.57;;;10.50;99.90;;;;;;6143011;29;20457;-66
2022/10/22 09:20:27;;;;;;;5.13;4.65;;;10.50;99.90;;;;;;6142281;29;20274;-67
2022/10/22 09:23:37;;;;;;;4.75;4.55;;;10.60;99.90;;;;;;6142613;29;20295;-67
2022/10/22 09:26:42;;;;;;;4.78;4.57;;;10.60;99.90;;;;;;6142664;29;20294;-67
2022/10/22 09:29:48;;;;;;;7.53;4.70;;;10.60;99.90;;;;;;6141904;29;20311;-66
2022/10/22 09:33:00;;;;;;;5.55;5.10;;;10.60;99.90;;;;;;6142160;29;20295;-68
2022/10/22 09:36:06;;;;;;;7.50;5.05;;;10.70;99.90;;;;;;6125838;29;20308;-68
2022/10/22 09:39:27;;;;;;;5.47;5.07;;;10.70;99.90;;;;;;6142418;29;20294;-67
2022/10/22 09:42:33;;;;;;;6.68;4.75;;;10.80;99.90;;;;;;6142407;29;20299;-67
2022/10/22 09:45:39;;;;;;;7.10;5.05;;;10.70;99.90;;;;;;6142746;29;20295;-68
2022/10/22 09:48:49;;;;;;;5.75;5.30;;;10.70;99.90;;;;;;6142023;29;20324;-67
2022/10/22 09:51:56;;;;;;;5.30;4.90;;;10.70;99.90;;;;;;6142590;29;20287;-67
2022/10/22 09:55:02;;;;;;;8.15;5.35;;;10.80;99.90;;;;;;6141520;29;20287;-67
2022/10/22 09:58:12;;;;;;;5.70;5.25;;;10.80;99.90;;;;;;6142020;29;20295;-67
2022/10/22 10:01:21;;;;;;;5.88;5.38;;;10.80;99.90;;;;;;6141762;29;20291;-67
2022/10/22 10:04:28;;;;;;;9.27;5.53;;;10.80;99.90;;;;;;6141752;29;20291;-67
2022/10/22 10:07:34;;;;;;;5.57;5.03;;;10.90;99.90;;;;;;6141412;29;20304;-68
2022/10/22 10:10:46;;;;;;;5.28;4.95;;;10.80;99.90;;;;;;6132734;29;20272;-66
2022/10/22 10:14:01;;;;;;;6.25;5.32;;;10.90;99.90;;;;;;6117581;29;20299;-67
2022/10/22 10:17:18;;;;;;;7.68;5.50;;;10.80;99.90;;;;;;6117386;29;20588;-67
2022/10/22 10:20:34;;;;;;;8.05;4.93;;;10.90;99.90;;;;;;6117838;29;20442;-68
2022/10/22 10:23:48;;;;;;;5.85;5.13;;;10.90;99.90;;;;;;6117910;29;20308;-67
2022/10/22 10:26:58;;;;;;;12.98;5.53;;;10.90;99.90;;;;;;6117529;29;20296;-67
2022/10/22 10:30:10;;;;;;;8.38;5.22;;;10.90;99.90;;;;;;6116901;29;20272;-68
2022/10/22 10:33:24;;;;;;;6.25;5.70;;;10.90;99.90;;;;;;6117441;29;20591;-67
2022/10/22 10:36:36;;;;;;;8.35;5.55;;;10.90;99.90;;;;;;6117893;29;20271;-68
2022/10/22 10:40:04;;;;;;;10.48;6.00;;;10.90;99.90;;;;;;6117632;29;20304;-68
2022/10/22 10:43:15;;;;;;;7.32;5.47;;;10.90;99.90;;;;;;6117011;29;20295;-68
2022/10/22 10:46:27;;;;;;;10.50;5.95;;;10.90;99.90;;;;;;6117612;29;20291;-67
2022/10/22 10:49:36;;;;;;;6.22;5.57;;;10.90;99.90;;;;;;6116841;29;20308;-67
2022/10/22 10:52:47;;;;;;;9.27;6.10;;;10.90;99.90;;;;;;6117157;29;20295;-67
2022/10/22 10:56:01;;;;;;;6.75;5.97;;;11.00;99.90;;;;;;6100824;29;20559;-67
2022/10/22 10:59:45;;;;;;;7.18;5.38;;;11.00;99.90;;;;;;6117083;29;20304;-68
2022/10/22 11:03:35;;;;;;;10.70;5.45;;;11.00;99.90;;;;;;6109214;29;20296;-68
2022/10/22 11:06:40;;;;;;;13.32;5.60;;;11.00;99.90;;;;;;6111762;29;20320;-67
2022/10/22 11:09:53;;;;;;;6.45;5.80;;;11.00;99.90;;;;;;6116895;29;20291;-67
2022/10/22 11:13:05;;;;;;;6.30;5.70;;;10.90;99.90;;;;;;6116773;29;20295;-67
2022/10/22 11:16:19;;;;;;;8.25;6.40;;;11.00;99.90;;;;;;6116999;29;20279;-67
2022/10/22 11:19:27;;;;;;;7.63;5.88;;;11.00;99.90;;;;;;6117090;29;20300;-67
2022/10/22 11:22:59;;;;;;;7.75;6.60;;;11.00;99.90;;;;;;6116734;29;20291;-68
2022/10/22 11:26:35;;;;;;;7.93;6.70;;;11.00;99.90;;;;;;6117235;29;20360;-68
2022/10/22 11:29:44;;;;;;;7.40;6.53;;;11.00;99.90;;;;;;6116645;29;20454;-68
2022/10/22 11:32:52;;;;;;;8.25;7.32;;;11.00;99.90;;;;;;6116651;29;20588;-68
2022/10/22 11:35:58;;;;;;;10.40;7.20;;;10.90;99.90;;;;;;6116621;29;20276;-68
2022/10/22 11:39:04;;;;;;;11.48;7.07;;;10.90;99.90;;;;;;6115527;29;20299;-67
2022/10/22 11:42:21;;;;;;;10.13;7.18;;;11.00;99.90;;;;;;6116578;29;20283;-68
2022/10/22 11:45:32;;;;;;;8.48;7.15;;;11.00;99.90;;;;;;6117034;29;20272;-68
2022/10/22 11:48:38;;;;;;;8.27;7.13;;;11.00;99.90;;;;;;6116265;29;20311;-68
2022/10/22 11:51:45;;;;;;;9.40;7.90;;;11.00;99.90;;;;;;6116546;29;20471;-66
2022/10/22 11:54:56;;;;;;;8.80;7.13;;;11.10;99.90;;;;;;6116267;29;20299;-67
2022/10/22 11:58:34;;;;;;;10.23;7.72;;;11.10;99.90;;;;;;6116021;29;20315;-66
2022/10/22 12:01:45;;;;;;;7.75;7.03;;;11.10;99.90;;;;;;6116161;29;20272;-68
2022/10/22 12:04:49;;;;;;;12.13;7.10;;;11.20;99.90;;;;;;6116320;29;20319;-68
2022/10/22 12:07:57;;;;;;;8.10;7.32;;;11.20;99.90;;;;;;6129453;29;20310;-68
2022/10/22 12:11:15;;;;;;;8.02;7.22;;;11.20;99.90;;;;;;6126881;29;20269;-67
2022/10/22 12:14:25;;;;;;;8.95;7.35;;;11.20;99.90;;;;;;6115861;29;20292;-66
2022/10/22 12:17:31;;;;;;;9.77;8.35;;;11.30;99.90;;;;;;6115497;29;20485;-67
2022/10/22 12:20:36;;;;;;;12.00;7.82;;;11.20;99.90;;;;;;6116220;29;20271;-67
2022/10/22 12:23:41;;;;;;;9.15;7.47;;;11.20;99.90;;;;;;6115155;29;20299;-66
2022/10/22 12:26:48;;;;;;;8.98;7.47;;;11.30;99.90;;;;;;6116333;29;20311;-68
2022/10/22 12:29:57;;;;;;;9.70;7.97;;;11.30;99.90;;;;;;6108386;29;20295;-66
2022/10/22 12:33:05;;;;;;;9.35;7.68;;;11.30;99.90;;;;;;6115316;29;20435;-67
2022/10/22 12:36:17;;;;;;;8.65;7.32;;;11.30;99.90;;;;;;6115560;29;20271;-67
2022/10/22 12:39:27;;;;;;;10.55;8.23;;;11.20;99.90;;;;;;6115664;29;20295;-67
2022/10/22 12:42:32;;;;;;;9.02;8.20;;;11.20;99.90;;;;;;6115538;29;20291;-68
2022/10/22 12:45:39;;;;;;;8.88;7.82;;;11.20;99.90;;;;;;6116414;29;20288;-67
2022/10/22 12:48:45;;;;;;;9.60;8.23;;;11.20;99.90;;;;;;6099229;29;20308;-68
2022/10/22 12:51:50;;;;;;;9.77;7.75;;;11.20;99.90;;;;;;6120010;29;20460;-67
2022/10/22 12:54:55;;;;;;;10.57;8.57;;;11.20;99.90;;;;;;6103143;29;20478;-67
2022/10/22 12:58:00;;;;;;;9.27;8.27;;;11.20;99.90;;;;;;6119799;29;20307;-67
2022/10/22 13:01:06;;;;;;;9.10;8.20;;;11.20;99.90;;;;;;6120178;29;20271;-68
2022/10/22 13:04:33;;;;;;;8.85;7.95;;;11.20;99.90;;;;;;6119278;29;20494;-67
2022/10/22 13:07:39;;;;;;;8.93;7.90;;;11.20;99.90;;;;;;6118984;29;20379;-68
2022/10/22 13:10:51;;;;;;;11.15;8.63;;;11.20;99.90;;;;;;6130195;29;20263;-67
2022/10/22 13:14:02;;;;;;;10.35;8.45;;;11.10;99.90;;;;;;6142418;29;20298;-68
2022/10/22 13:17:13;;;;;;;8.60;7.82;;;11.10;99.90;;;;;;6125764;29;20460;-68
2022/10/22 13:20:22;;;;;;;10.07;8.15;;;11.10;99.90;;;;;;6143055;29;20271;-68
2022/10/22 13:23:29;;;;;;;12.98;8.55;;;11.10;99.90;;;;;;6142605;29;20295;-70
2022/10/22 13:26:36;;;;;;;10.40;8.32;;;11.10;99.90;;;;;;6142971;29;20275;-68
2022/10/22 13:29:42;;;;;;;10.48;8.38;;;11.10;99.90;;;;;;6142362;29;20303;-68
2022/10/22 13:32:53;;;;;;;15.90;8.88;;;11.20;99.90;;;;;;6142473;29;20482;-68
2022/10/22 13:35:58;;;;;;;14.07;8.57;;;11.10;99.90;;;;;;6126059;29;20268;-68
2022/10/22 13:39:05;;;;;;;10.95;8.07;;;11.10;99.90;;;;;;6142514;29;20311;-67
2022/10/22 13:42:12;;;;;;;9.98;7.95;;;11.10;99.90;;;;;;6142415;29;20457;-67
2022/10/22 13:45:17;;;;;;;12.50;8.45;;;11.10;99.90;;;;;;6142848;29;20349;-67
2022/10/22 13:48:24;;;;;;;9.98;8.10;;;11.10;99.90;;;;;;6142011;29;20299;-67
2022/10/22 13:51:34;;;;;;;11.38;8.70;;;11.20;99.90;;;;;;6142752;29;20275;-67
2022/10/22 13:54:39;;;;;;;11.57;7.75;;;11.20;99.90;;;;;;6142265;29;20427;-68
2022/10/22 13:57:44;;;;;;;10.63;7.95;;;11.20;99.90;;;;;;6141949;29;20615;-68
2022/10/22 14:00:53;;;;;;;11.68;8.02;;;11.20;99.90;;;;;;6141301;29;20275;-68
2022/10/22 14:04:00;;;;;;;9.27;8.32;;;11.20;99.90;;;;;;6141600;29;20295;-68
2022/10/22 14:07:10;;;;;;;14.23;8.70;;;11.20;99.90;;;;;;6141669;29;20302;-68
2022/10/22 14:10:18;;;;;;;9.38;7.88;;;11.20;99.90;;;;;;6135707;29;20264;-68
2022/10/22 14:13:24;;;;;;;9.80;8.82;;;11.20;99.90;;;;;;6117858;29;20299;-68
2022/10/22 14:16:30;;;;;;;13.20;8.60;;;11.20;99.90;;;;;;6118449;29;20275;-68
2022/10/22 14:19:36;;;;;;;11.82;8.85;;;11.20;99.90;;;;;;6118022;29;20304;-68
2022/10/22 14:22:41;;;;;;;10.00;8.65;;;11.10;99.90;;;;;;6117781;29;20300;-68
2022/10/22 14:25:46;;;;;;;9.85;8.85;;;11.10;99.90;;;;;;6117976;29;20435;-68
2022/10/22 14:28:51;;;;;;;13.38;8.13;;;11.10;99.90;;;;;;6117565;29;20303;-68
2022/10/22 14:32:19;;;;;;;14.30;8.98;;;11.10;99.90;;;;;;6117411;29;20308;-68
2022/10/22 14:35:25;;;;;;;12.70;9.77;;;11.10;99.90;;;;;;6117641;29;20276;-68
2022/10/22 14:38:30;;;;;;;11.60;9.20;;;11.10;99.90;;;;;;6117416;29;20474;-68
2022/10/22 14:41:35;;;;;;;11.52;9.60;;;11.10;99.90;;;;;;6117697;29;20651;-67
2022/10/22 14:44:40;;;;;;;12.20;9.43;;;11.10;99.90;;;;;;6117413;29;20295;-67
2022/10/22 14:47:45;;;;;;;14.00;9.05;;;11.10;99.90;;;;;;6117067;29;20307;-68
2022/10/22 14:50:51;;;;;;;12.63;9.63;;;11.10;99.90;;;;;;6117799;29;20272;-68
2022/10/22 14:53:56;;;;;;;14.38;9.60;;;11.00;99.90;;;;;;6116593;29;20303;-68
2022/10/22 14:57:00;;;;;;;15.73;9.50;;;11.00;99.90;;;;;;6116402;29;20293;-69
2022/10/22 15:00:10;;;;;;;12.30;10.75;;;11.00;99.90;;;;;;6117105;29;20459;-68
2022/10/22 15:03:17;;;;;;;11.93;9.88;;;11.00;99.90;;;;;;6116741;29;20529;-68
2022/10/22 15:06:23;;;;;;;16.45;11.25;;;11.00;99.90;;;;;;6117433;29;20281;-68
2022/10/22 15:09:28;;;;;;;15.13;10.57;;;11.00;99.90;;;;;;6116394;29;20320;-69
2022/10/22 15:12:32;;;;;;;16.48;11.63;;;11.00;99.90;;;;;;6140344;29;20327;-68
2022/10/22 15:15:40;;;;;;;13.63;10.32;;;10.90;99.90;;;;;;6140695;29;20275;-68
2022/10/22 15:18:44;;;;;;;14.77;10.93;;;10.90;99.90;;;;;;6140439;29;20302;-68
2022/10/22 15:21:51;;;;;;;16.60;11.20;;;10.90;99.90;;;;;;6140336;29;20554;-67
2022/10/22 15:24:56;;;;;;;15.68;12.23;;;10.90;99.90;;;;;;6140109;29;20308;-68
2022/10/22 15:28:00;;;;;;;17.95;11.48;;;10.90;99.90;;;;;;6139844;29;20295;-68
2022/10/22 15:31:14;;;;;;;17.17;11.43;;;11.00;99.90;;;;;;6123883;29;20290;-68
2022/10/22 15:34:21;;;;;;;16.35;12.88;;;10.90;99.90;;;;;;6139541;29;20319;-67
2022/10/22 15:37:27;;;;;;;17.67;12.07;;;10.90;99.90;;;;;;6139680;29;20291;-68
2022/10/22 15:40:32;;;;;;;16.40;12.60;;;10.80;99.90;;;;;;6140311;29;20271;-68
2022/10/22 15:43:37;;;;;;;16.42;11.98;;;10.80;99.90;;;;;;6139863;29;20302;-68
2022/10/22 15:46:42;;;;;;;14.48;12.18;;;10.80;99.90;;;;;;6140620;29;20271;-68
2022/10/22 15:49:47;;;;;;;17.05;11.75;;;10.80;99.90;;;;;;6139690;29;20306;-67
2022/10/22 15:52:54;;;;;;;19.00;12.70;;;10.90;99.90;;;;;;6139595;29;20291;-67
2022/10/22 15:55:59;;;;;;;16.55;11.75;;;10.80;99.90;;;;;;6140445;29;20429;-67
2022/10/22 15:59:04;;;;;;;20.30;12.70;;;10.80;99.90;;;;;;6139824;29;20310;-68
2022/10/22 16:02:10;;;;;;;18.35;13.13;;;10.80;99.90;;;;;;6139451;29;20275;-68
2022/10/22 16:05:15;;;;;;;16.35;12.70;;;10.80;99.90;;;;;;6139858;29;20278;-67
2022/10/22 16:08:21;;;;;;;18.50;13.60;;;10.70;99.90;;;;;;6139547;29;20477;-67
2022/10/22 16:11:28;;;;;;;19.10;14.27;;;10.80;99.90;;;;;;6124477;29;20268;-68
2022/10/22 16:14:32;;;;;;;22.17;13.20;;;10.70;99.90;;;;;;6115838;29;20304;-68
2022/10/22 16:17:37;;;;;;;23.60;13.13;;;10.70;99.90;;;;;;6116133;29;20470;-68
2022/10/22 16:20:42;;;;;;;23.10;13.80;;;10.70;99.90;;;;;;6116599;29;20277;-68